Decoded Metar for KUTS (HUNTSVILLE in TX, USA) (IATA:UTS) | Meteo·Mobile Aviation Weather
aviador You're here:

KUTS Decoded Metar

HUNTSVILLE in TX, USA
Report Time2019-07-16 02:53:00
UTC Time2019-07-16 03:12:03
Flight Rules vfr VFR
WindVRB at 04 kt
Visibility9999 m
Phenomena:N/A
Clouds:N/A
Expected CloudBase > 1,600 ft AGL from Temp-Dew spread
CeilingNone
Temp28°C (ISA +14)
Dew Point24°C (79% RH)
Heat Index31.9°C
QNH1013 hPa
Density Alt2,306 ft
Elevation341 ft
Report Wrong Elevation
Raw Report
KUTS 160253Z AUTO VRB04KT 10SM CLR 28/24 A2992 RMK AO2 SLP125
T02830244 53005=

Extra information for KUTS:More info

Metar Taf Metar & Taf Last 4 Metars F.Rules Stats Wind Profile Meteogram Temp Stats Airport Information Weather charts Add Link Nearby VenuesMetar ALERT Operation Metar Decoded Social comments

AIRNAV info for KUTS